createdAt,value
2018-09-25T00:00:31.200Z,80.83
2018-09-25T00:03:04.680Z,80.43
2018-09-25T00:05:38.192Z,81.33
2018-09-25T00:08:11.684Z,82.21
2018-09-25T00:10:45.287Z,83.73
2018-09-25T00:13:18.873Z,83.87
2018-09-25T00:15:52.253Z,82.34
2018-09-25T00:18:32.728Z,81.98
2018-09-25T00:21:06.230Z,81.11
2018-09-25T00:23:39.614Z,79.93
2018-09-25T00:26:13.113Z,79.32
2018-09-25T00:28:46.521Z,80.25
2018-09-25T00:31:19.997Z,79.19
2018-09-25T00:33:53.400Z,79.03
2018-09-25T00:36:26.693Z,79.42
2018-09-25T00:39:00.298Z,78.60
2018-09-25T00:41:33.827Z,78.59
2018-09-25T00:44:07.173Z,78.43
2018-09-25T00:46:40.538Z,78.32
2018-09-25T00:49:14.145Z,79.21
2018-09-25T00:51:47.586Z,79.36
2018-09-25T00:54:21.148Z,79.59
2018-09-25T00:56:54.594Z,80.05
2018-09-25T00:59:28.154Z,80.32
2018-09-25T01:02:01.670Z,80.79
2018-09-25T01:04:35.049Z,80.69
2018-09-25T01:07:08.586Z,80.37
2018-09-25T01:09:42.072Z,80.71
2018-09-25T01:12:15.556Z,79.65
2018-09-25T01:14:48.961Z,79.36
2018-09-25T01:17:22.442Z,79.99
2018-09-25T01:19:55.749Z,80.39
2018-09-25T01:22:29.127Z,79.99
2018-09-25T01:25:02.738Z,80.42
2018-09-25T01:27:36.244Z,81.11
2018-09-25T01:30:09.985Z,80.50
2018-09-25T01:32:43.522Z,81.37
2018-09-25T01:35:17.045Z,81.73
2018-09-25T01:37:50.505Z,81.93
2018-09-25T01:40:24.076Z,81.12
2018-09-25T01:42:57.501Z,81.01
2018-09-25T01:45:31.021Z,80.06
2018-09-25T01:48:04.348Z,79.82
2018-09-25T01:50:37.813Z,80.92
2018-09-25T01:53:11.361Z,81.13
2018-09-25T01:55:44.798Z,80.73
2018-09-25T01:58:18.089Z,80.70
2018-09-25T02:00:51.316Z,81.25
2018-09-25T02:03:24.706Z,80.86
2018-09-25T02:05:58.384Z,79.15
2018-09-25T02:08:31.785Z,79.01
2018-09-25T02:11:05.065Z,78.87
2018-09-25T02:13:38.529Z,78.53
2018-09-25T02:16:11.969Z,78.56
2018-09-25T02:18:45.645Z,78.36
2018-09-25T02:21:19.208Z,79.42
2018-09-25T02:23:52.529Z,79.26
2018-09-25T02:26:26.067Z,79.52
2018-09-25T02:28:59.496Z,79.83
2018-09-25T02:31:32.950Z,82.96
2018-09-25T02:34:06.320Z,82.08
2018-09-25T02:36:39.756Z,82.79
2018-09-25T02:39:14.903Z,82.66
2018-09-25T02:41:49.017Z,82.46
2018-09-25T02:44:22.616Z,81.64
2018-09-25T02:46:56.104Z,82.24
2018-09-25T02:49:29.712Z,81.42
2018-09-25T02:52:03.085Z,82.56
2018-09-25T02:54:36.566Z,83.24
2018-09-25T02:57:10.004Z,83.95
2018-09-25T02:59:43.482Z,82.23
2018-09-25T03:02:16.900Z,82.68
2018-09-25T03:04:50.353Z,81.94
2018-09-25T03:07:23.927Z,81.66
2018-09-25T03:09:57.379Z,81.75
2018-09-25T03:12:30.624Z,81.51
2018-09-25T03:15:03.989Z,82.20
2018-09-25T03:17:37.516Z,81.40
2018-09-25T03:20:11.041Z,81.46
2018-09-25T03:22:44.372Z,80.58
2018-09-25T03:25:17.833Z,79.88
2018-09-25T03:27:51.170Z,79.63
2018-09-25T03:30:24.621Z,78.84
2018-09-25T03:32:58.091Z,79.21
2018-09-25T03:35:31.685Z,78.87
2018-09-25T03:38:05.029Z,77.90
2018-09-25T03:40:38.510Z,78.01
2018-09-25T03:43:12.108Z,78.75
2018-09-25T03:45:45.625Z,78.70
2018-09-25T03:48:19.142Z,78.18
2018-09-25T03:50:52.517Z,79.05
2018-09-25T03:53:25.912Z,78.03
2018-09-25T03:55:59.436Z,78.56
2018-09-25T03:58:32.955Z,78.55
2018-09-25T04:01:06.464Z,77.92
2018-09-25T04:03:39.857Z,78.07
2018-09-25T04:06:13.240Z,78.45
2018-09-25T04:08:46.627Z,77.45
2018-09-25T04:11:20.014Z,79.07
2018-09-25T04:13:53.398Z,78.08
2018-09-25T04:16:26.797Z,77.69
2018-09-25T04:19:00.123Z,78.32
2018-09-25T04:24:06.195Z,77.90
2018-09-25T04:26:39.623Z,77.78
2018-09-25T04:29:13.218Z,77.54
2018-09-25T04:31:46.681Z,77.39
2018-09-25T04:34:20.136Z,77.05
2018-09-25T04:36:53.640Z,77.58
2018-09-25T04:39:27.153Z,77.20
2018-09-25T04:42:00.649Z,77.44
2018-09-25T04:44:34.060Z,78.65
2018-09-25T04:47:07.544Z,77.70
2018-09-25T04:49:41.012Z,78.92
2018-09-25T04:52:14.429Z,79.09
2018-09-25T04:54:47.924Z,78.88
2018-09-25T04:57:21.321Z,78.38
2018-09-25T04:59:54.622Z,77.98
2018-09-25T05:02:27.984Z,78.47
2018-09-25T05:05:01.537Z,77.90
2018-09-25T05:07:35.045Z,78.51
2018-09-25T05:10:08.377Z,78.79
2018-09-25T05:12:41.821Z,78.14
2018-09-25T05:15:15.324Z,78.47
2018-09-25T05:17:48.664Z,77.62
2018-09-25T05:20:22.094Z,77.93
2018-09-25T05:22:55.364Z,78.09
2018-09-25T05:25:28.840Z,78.76
2018-09-25T05:28:02.441Z,78.20
2018-09-25T05:30:35.733Z,77.82
2018-09-25T05:33:09.108Z,77.99
2018-09-25T05:35:42.668Z,78.12
2018-09-25T05:38:16.081Z,77.74
2018-09-25T05:40:49.626Z,77.75
2018-09-25T05:43:22.917Z,78.20
2018-09-25T05:45:56.341Z,77.44
2018-09-25T05:48:29.883Z,78.07
2018-09-25T05:51:03.196Z,77.09
2018-09-25T05:53:36.717Z,77.34
2018-09-25T05:56:10.051Z,77.27
2018-09-25T05:58:43.573Z,78.00
2018-09-25T06:01:17.015Z,78.62
2018-09-25T06:03:50.443Z,79.41
2018-09-25T06:06:23.940Z,83.27
2018-09-25T06:08:57.360Z,83.79
2018-09-25T06:11:30.895Z,65.13
2018-09-25T06:14:04.389Z,59.63
2018-09-25T06:16:37.869Z,53.81
2018-09-25T06:19:11.203Z,51.41
2018-09-25T06:21:44.611Z,47.34
2018-09-25T06:24:18.141Z,45.13
2018-09-25T06:26:51.521Z,41.61
2018-09-25T06:29:24.909Z,39.17
2018-09-25T06:31:58.301Z,36.96
2018-09-25T06:34:31.896Z,34.41
2018-09-25T06:37:05.064Z,32.89
2018-09-25T06:39:38.413Z,32.38
2018-09-25T06:42:11.995Z,31.23
2018-09-25T06:44:45.501Z,28.89
2018-09-25T06:47:18.915Z,29.17
2018-09-25T06:49:52.376Z,27.79
2018-09-25T06:52:26.090Z,26.69
2018-09-25T06:54:59.643Z,25.54
2018-09-25T06:57:33.092Z,24.43
2018-09-25T07:00:06.481Z,24.74
2018-09-25T07:02:39.862Z,23.59
2018-09-25T07:05:13.264Z,23.42
2018-09-25T07:07:46.660Z,23.20
2018-09-25T07:10:20.104Z,22.66
2018-09-25T07:12:53.582Z,22.44
2018-09-25T07:15:27.107Z,22.46
2018-09-25T07:18:00.709Z,21.95
2018-09-25T07:20:34.101Z,22.65
2018-09-25T07:23:07.627Z,21.43
2018-09-25T07:25:41.157Z,21.40
2018-09-25T07:28:14.661Z,21.63
2018-09-25T07:30:48.178Z,22.20
2018-09-25T07:33:21.785Z,21.30
2018-09-25T07:35:55.116Z,21.30
2018-09-25T07:38:28.681Z,21.43
2018-09-25T07:41:01.992Z,21.72
2018-09-25T07:43:35.480Z,21.58
2018-09-25T07:46:09.008Z,21.31
2018-09-25T07:48:42.424Z,21.42
2018-09-25T07:51:16.073Z,22.39
2018-09-25T07:53:49.589Z,23.09
2018-09-25T07:56:22.928Z,22.90
2018-09-25T07:58:56.465Z,22.85
2018-09-25T08:01:29.834Z,22.57
2018-09-25T08:04:03.404Z,23.63
2018-09-25T08:06:36.897Z,23.06
2018-09-25T08:09:13.097Z,23.34
2018-09-25T08:11:46.749Z,24.52
2018-09-25T08:14:20.310Z,25.14
2018-09-25T08:16:53.821Z,25.24
2018-09-25T08:19:27.206Z,23.92
2018-09-25T08:22:00.736Z,23.30
2018-09-25T08:24:34.289Z,23.57
2018-09-25T08:27:07.616Z,23.07
2018-09-25T08:29:41.505Z,23.16
2018-09-25T08:32:14.875Z,22.87
2018-09-25T08:34:48.320Z,22.79
2018-09-25T08:37:21.654Z,22.10
2018-09-25T08:39:55.007Z,22.44
2018-09-25T08:42:28.548Z,22.05
2018-09-25T08:45:02.170Z,21.97
2018-09-25T08:47:35.734Z,22.20
2018-09-25T08:50:09.312Z,22.24
2018-09-25T08:52:42.674Z,22.35
2018-09-25T08:55:16.080Z,21.36
2018-09-25T08:57:49.517Z,21.58
2018-09-25T09:00:22.872Z,22.28
2018-09-25T09:02:56.389Z,22.48
2018-09-25T09:05:29.861Z,23.50
2018-09-25T09:08:03.285Z,23.52
2018-09-25T09:10:36.768Z,23.31
2018-09-25T09:13:10.197Z,22.49
2018-09-25T09:15:43.738Z,22.79
2018-09-25T09:18:17.235Z,24.17
2018-09-25T09:20:50.740Z,23.25
2018-09-25T09:23:24.306Z,24.88
2018-09-25T09:25:57.600Z,25.54
2018-09-25T09:28:31.124Z,25.56
2018-09-25T09:31:04.545Z,26.20
2018-09-25T09:33:38.012Z,26.51
2018-09-25T09:36:11.358Z,28.41
2018-09-25T09:38:44.773Z,28.58
2018-09-25T09:41:18.336Z,30.29
2018-09-25T09:43:51.888Z,32.17
2018-09-25T09:46:25.456Z,30.82
2018-09-25T09:48:59.008Z,31.17
2018-09-25T09:51:32.489Z,32.09
2018-09-25T09:54:05.831Z,33.78
2018-09-25T09:56:39.377Z,35.74
2018-09-25T09:59:13.129Z,37.00
2018-09-25T10:01:46.550Z,37.82
2018-09-25T10:04:20.112Z,38.48
2018-09-25T10:06:53.705Z,42.60
2018-09-25T10:09:27.042Z,43.20
2018-09-25T10:12:00.564Z,39.59
2018-09-25T10:14:34.153Z,43.62
2018-09-25T10:17:07.550Z,40.78
2018-09-25T10:19:41.053Z,39.03
2018-09-25T10:22:14.557Z,38.77
2018-09-25T10:24:48.165Z,39.98
2018-09-25T10:27:21.709Z,40.34
2018-09-25T10:29:55.160Z,42.26
2018-09-25T10:32:28.539Z,41.02
2018-09-25T10:35:02.086Z,41.75
2018-09-25T10:37:35.423Z,41.82
2018-09-25T10:40:08.952Z,41.93
2018-09-25T10:42:42.417Z,40.33
2018-09-25T10:45:15.781Z,41.60
2018-09-25T10:47:49.225Z,42.52
2018-09-25T10:50:22.779Z,41.14
2018-09-25T10:52:56.233Z,40.95
2018-09-25T10:55:29.694Z,41.83
2018-09-25T10:58:03.090Z,39.19
2018-09-25T11:00:36.469Z,40.09
2018-09-25T11:03:10.036Z,38.91
2018-09-25T11:05:43.274Z,39.32
2018-09-25T11:08:16.636Z,40.07
2018-09-25T11:10:50.209Z,40.25
2018-09-25T11:13:23.705Z,41.29
2018-09-25T11:15:57.077Z,40.89
2018-09-25T11:18:30.696Z,41.65
2018-09-25T11:21:04.084Z,41.38
2018-09-25T11:23:37.594Z,42.68
2018-09-25T11:26:11.097Z,41.95
2018-09-25T11:28:44.632Z,42.10
2018-09-25T11:31:18.080Z,42.76
2018-09-25T11:33:51.556Z,42.45
2018-09-25T11:36:25.066Z,43.28
2018-09-25T11:38:58.393Z,43.63
2018-09-25T11:41:31.873Z,43.03
2018-09-25T11:44:05.299Z,44.53
2018-09-25T11:46:38.708Z,43.76
2018-09-25T11:49:12.045Z,44.55
2018-09-25T11:51:45.470Z,43.58
2018-09-25T11:54:19.054Z,44.67
2018-09-25T11:56:52.457Z,45.78
2018-09-25T11:59:25.916Z,46.06
2018-09-25T12:01:59.440Z,41.66
2018-09-25T12:04:32.959Z,42.34
2018-09-25T12:07:06.377Z,42.64
2018-09-25T12:09:39.956Z,42.26
2018-09-25T12:12:13.404Z,41.55
2018-09-25T12:14:46.749Z,41.86
2018-09-25T12:17:20.198Z,42.68
2018-09-25T12:19:53.561Z,41.72
2018-09-25T12:22:27.150Z,40.93
2018-09-25T12:25:00.722Z,44.12
2018-09-25T12:27:34.216Z,44.16
2018-09-25T12:30:07.657Z,44.07
2018-09-25T12:32:41.090Z,46.81
2018-09-25T12:35:14.437Z,48.31
2018-09-25T12:37:47.865Z,48.10
2018-09-25T12:40:21.440Z,48.28
2018-09-25T12:42:55.033Z,47.71
2018-09-25T12:45:28.428Z,48.32
2018-09-25T12:48:01.921Z,48.43
2018-09-25T12:50:35.340Z,47.45
2018-09-25T12:53:08.902Z,48.32
2018-09-25T12:55:42.338Z,46.93
2018-09-25T12:58:15.924Z,46.92
2018-09-25T13:00:49.398Z,45.81
2018-09-25T13:03:22.917Z,43.97
2018-09-25T13:05:56.345Z,42.76
2018-09-25T13:08:29.717Z,43.65
2018-09-25T13:11:03.145Z,41.95
2018-09-25T13:13:36.668Z,43.68
2018-09-25T13:16:09.988Z,41.52
2018-09-25T13:18:43.265Z,43.00
2018-09-25T13:21:16.682Z,43.88
2018-09-25T13:23:50.261Z,43.02
2018-09-25T13:26:23.665Z,43.82
2018-09-25T13:28:57.012Z,43.67
2018-09-25T13:31:30.496Z,46.71
2018-09-25T13:34:04.029Z,44.39
2018-09-25T13:36:37.532Z,44.40
2018-09-25T13:39:13.509Z,41.94
2018-09-25T13:41:47.268Z,41.39
2018-09-25T13:44:20.618Z,42.98
2018-09-25T13:46:54.200Z,43.44
2018-09-25T13:49:27.745Z,42.38
2018-09-25T13:52:01.092Z,42.38
2018-09-25T13:54:34.423Z,40.75
2018-09-25T13:57:07.769Z,42.72
2018-09-25T13:59:41.435Z,39.96
2018-09-25T14:02:14.975Z,41.49
2018-09-25T14:04:48.352Z,40.14
2018-09-25T14:07:21.868Z,40.43
2018-09-25T14:09:55.357Z,40.45
2018-09-25T14:12:28.874Z,40.32
2018-09-25T14:15:02.398Z,41.99
2018-09-25T14:17:35.849Z,41.92
2018-09-25T14:20:09.468Z,43.68
2018-09-25T14:22:42.918Z,42.05
2018-09-25T14:25:16.322Z,42.98
2018-09-25T14:27:49.712Z,41.79
2018-09-25T14:30:23.132Z,39.55
2018-09-25T14:32:56.520Z,40.85
2018-09-25T14:35:29.891Z,38.68
2018-09-25T14:38:03.313Z,38.54
2018-09-25T14:40:36.754Z,39.56
2018-09-25T14:43:10.164Z,41.70
2018-09-25T14:45:43.637Z,42.25
2018-09-25T14:48:17.132Z,42.51
2018-09-25T14:50:50.784Z,41.97
2018-09-25T14:53:24.270Z,42.77
2018-09-25T14:55:57.802Z,40.23
2018-09-25T14:58:31.205Z,38.84
2018-09-25T15:01:04.861Z,40.41
2018-09-25T15:03:38.557Z,41.86
2018-09-25T15:06:12.170Z,42.37
2018-09-25T15:08:45.653Z,44.52
2018-09-25T15:11:19.041Z,41.75
2018-09-25T15:13:52.554Z,41.78
2018-09-25T15:16:26.145Z,42.30
2018-09-25T15:18:59.567Z,43.49
2018-09-25T15:21:33.303Z,42.79
2018-09-25T15:24:06.756Z,44.46
2018-09-25T15:26:40.133Z,42.71
2018-09-25T15:29:13.516Z,45.12
2018-09-25T15:31:47.025Z,43.70
2018-09-25T15:34:20.585Z,42.76
2018-09-25T15:36:54.129Z,44.14
2018-09-25T15:39:27.622Z,43.97
2018-09-25T15:42:01.004Z,45.38
2018-09-25T15:44:34.405Z,44.69
2018-09-25T15:47:07.764Z,45.67
2018-09-25T15:49:41.316Z,45.96
2018-09-25T15:52:14.717Z,44.72
2018-09-25T15:54:48.279Z,46.77
2018-09-25T15:57:21.632Z,45.64
2018-09-25T15:59:55.157Z,46.59
2018-09-25T16:02:28.741Z,46.48
2018-09-25T16:05:02.261Z,44.92
2018-09-25T16:07:35.925Z,45.77
2018-09-25T16:10:09.246Z,46.63
2018-09-25T16:12:42.705Z,46.21
2018-09-25T16:15:16.142Z,46.68
2018-09-25T16:17:49.494Z,46.19
2018-09-25T16:20:22.917Z,47.16
2018-09-25T16:22:56.545Z,47.30
2018-09-25T16:25:29.924Z,48.13
2018-09-25T16:28:03.543Z,47.52
2018-09-25T16:30:37.081Z,47.52
2018-09-25T16:33:10.498Z,48.40
2018-09-25T16:35:44.053Z,48.33
2018-09-25T16:38:17.410Z,50.31
2018-09-25T16:40:50.938Z,50.13
2018-09-25T16:43:24.609Z,50.46
2018-09-25T16:45:58.148Z,49.14
2018-09-25T16:48:31.653Z,50.14
2018-09-25T16:51:05.013Z,50.96
2018-09-25T16:53:38.413Z,50.23
2018-09-25T16:56:11.919Z,50.35
2018-09-25T16:58:45.320Z,51.49
2018-09-25T17:01:18.689Z,51.76
2018-09-25T17:03:52.084Z,52.12
2018-09-25T17:06:25.496Z,50.77
2018-09-25T17:08:59.006Z,51.69
2018-09-25T17:11:32.221Z,52.20
2018-09-25T17:14:05.616Z,52.36
2018-09-25T17:16:38.997Z,52.72
2018-09-25T17:19:18.285Z,52.68
2018-09-25T17:21:51.849Z,53.73
2018-09-25T17:24:25.344Z,54.23
2018-09-25T17:26:58.693Z,54.52
2018-09-25T17:29:32.261Z,53.79
2018-09-25T17:32:05.718Z,54.80
2018-09-25T17:34:39.051Z,54.48
2018-09-25T17:37:12.539Z,55.44
2018-09-25T17:39:45.881Z,54.67
2018-09-25T17:42:19.284Z,55.82
2018-09-25T17:44:52.708Z,56.66
2018-09-25T17:47:26.260Z,57.47
2018-09-25T17:49:59.712Z,56.71
2018-09-25T17:52:33.180Z,57.48
2018-09-25T17:55:06.854Z,57.90
2018-09-25T17:57:40.284Z,58.39
2018-09-25T18:00:13.801Z,59.26
2018-09-25T18:02:47.307Z,58.43
2018-09-25T18:05:20.922Z,59.36
2018-09-25T18:07:54.313Z,59.28
2018-09-25T18:10:27.789Z,60.26
2018-09-25T18:13:01.466Z,60.57
2018-09-25T18:15:35.040Z,59.77
2018-09-25T18:18:08.405Z,59.99
2018-09-25T18:20:41.871Z,59.81
2018-09-25T18:23:15.205Z,60.78
2018-09-25T18:25:48.604Z,60.96
2018-09-25T18:28:21.937Z,60.30
2018-09-25T18:30:55.388Z,61.22
2018-09-25T18:33:28.898Z,61.67
2018-09-25T18:36:02.372Z,61.42
2018-09-25T18:38:35.948Z,62.34
2018-09-25T18:41:09.665Z,63.02
2018-09-25T18:43:43.227Z,62.33
2018-09-25T18:46:16.592Z,62.69
2018-09-25T18:48:50.058Z,63.93
2018-09-25T18:51:23.525Z,63.79
2018-09-25T18:53:57.077Z,63.27
2018-09-25T18:56:30.809Z,63.54
2018-09-25T18:59:04.360Z,64.65
2018-09-25T19:01:38.016Z,64.49
2018-09-25T19:04:11.681Z,64.31
2018-09-25T19:06:45.034Z,64.41
2018-09-25T19:09:18.456Z,66.00
2018-09-25T19:11:52.125Z,66.40
2018-09-25T19:14:25.537Z,66.23
2018-09-25T19:16:59.018Z,66.72
2018-09-25T19:19:32.376Z,66.91
2018-09-25T19:22:05.909Z,67.34
2018-09-25T19:24:39.416Z,67.69
2018-09-25T19:27:12.922Z,67.78
2018-09-25T19:29:46.288Z,68.03
2018-09-25T19:32:19.664Z,68.25
2018-09-25T19:34:53.106Z,67.84
2018-09-25T19:37:26.512Z,68.53
2018-09-25T19:40:00.030Z,68.86
2018-09-25T19:42:33.596Z,68.42
2018-09-25T19:45:06.975Z,68.66
2018-09-25T19:47:40.625Z,69.16
2018-09-25T19:50:14.073Z,69.14
2018-09-25T19:52:47.593Z,70.25
2018-09-25T19:55:20.948Z,69.57
2018-09-25T19:57:54.381Z,70.91
2018-09-25T20:00:27.993Z,72.02
2018-09-25T20:03:01.503Z,71.72
2018-09-25T20:05:35.081Z,73.02
2018-09-25T20:08:08.678Z,72.98
2018-09-25T20:10:41.975Z,73.62
2018-09-25T20:13:15.529Z,72.57
2018-09-25T20:15:48.919Z,72.62
2018-09-25T20:18:22.403Z,72.71
2018-09-25T20:20:55.811Z,72.48
2018-09-25T20:23:29.149Z,71.66
2018-09-25T20:26:02.574Z,71.53
2018-09-25T20:28:36.011Z,71.79
2018-09-25T20:31:09.394Z,71.63
2018-09-25T20:33:42.775Z,71.99
2018-09-25T20:36:16.119Z,72.14
2018-09-25T20:38:49.458Z,72.08
2018-09-25T20:41:22.864Z,70.92
2018-09-25T20:43:56.430Z,72.21
2018-09-25T20:46:29.743Z,71.67
2018-09-25T20:49:03.105Z,72.28
2018-09-25T20:51:36.436Z,71.40
2018-09-25T20:54:09.983Z,71.23
2018-09-25T20:56:43.495Z,70.92
2018-09-25T20:59:16.809Z,70.92
2018-09-25T21:01:50.404Z,71.21
2018-09-25T21:04:23.872Z,70.83
2018-09-25T21:06:57.233Z,70.87
2018-09-25T21:09:30.737Z,70.57
2018-09-25T21:12:04.254Z,71.01
2018-09-25T21:14:37.849Z,71.12
2018-09-25T21:17:11.581Z,71.20
2018-09-25T21:19:45.047Z,71.36
2018-09-25T21:22:18.546Z,71.52
2018-09-25T21:24:52.064Z,71.23
2018-09-25T21:27:25.477Z,71.69
2018-09-25T21:29:58.820Z,71.06
2018-09-25T21:32:32.208Z,71.83
2018-09-25T21:35:05.733Z,72.69
2018-09-25T21:37:39.097Z,72.63
2018-09-25T21:40:12.696Z,73.29
2018-09-25T21:42:45.944Z,73.74
2018-09-25T21:45:19.322Z,73.44
2018-09-25T21:47:52.819Z,73.86
2018-09-25T21:50:26.185Z,74.64
2018-09-25T21:52:59.573Z,73.95
2018-09-25T21:55:32.898Z,74.81
2018-09-25T21:58:06.281Z,73.56
2018-09-25T22:00:39.541Z,74.04
2018-09-25T22:03:12.917Z,73.13
2018-09-25T22:05:46.495Z,73.32
2018-09-25T22:08:19.848Z,74.61
2018-09-25T22:10:53.301Z,74.80
2018-09-25T22:13:26.861Z,73.82
2018-09-25T22:16:00.556Z,74.48
2018-09-25T22:18:33.988Z,73.56
2018-09-25T22:21:07.492Z,73.75
2018-09-25T22:23:40.994Z,72.98
2018-09-25T22:26:14.509Z,73.56
2018-09-25T22:28:47.992Z,72.50
2018-09-25T22:31:21.293Z,72.59
2018-09-25T22:33:54.757Z,71.67
2018-09-25T22:36:28.119Z,71.35
2018-09-25T22:39:01.654Z,71.68
2018-09-25T22:41:35.179Z,70.57
2018-09-25T22:44:08.652Z,71.46
2018-09-25T22:46:42.160Z,71.71
2018-09-25T22:49:15.501Z,72.71
2018-09-25T22:51:49.114Z,74.80
2018-09-25T22:54:22.725Z,74.36
2018-09-25T22:56:56.257Z,74.59
2018-09-25T22:59:29.761Z,74.89
2018-09-25T23:02:03.323Z,75.03
2018-09-25T23:04:36.659Z,74.87
2018-09-25T23:07:09.944Z,74.57
2018-09-25T23:09:43.345Z,74.73
2018-09-25T23:12:16.789Z,74.15
2018-09-25T23:14:50.333Z,74.79
2018-09-25T23:17:23.780Z,75.78
2018-09-25T23:19:57.185Z,75.88
2018-09-25T23:22:30.548Z,76.41
2018-09-25T23:25:04.136Z,75.85
2018-09-25T23:27:37.541Z,75.63
2018-09-25T23:30:10.847Z,75.35
2018-09-25T23:32:44.352Z,75.80
2018-09-25T23:35:17.722Z,75.64
2018-09-25T23:37:51.067Z,75.24
2018-09-25T23:42:31.567Z,76.27
2018-09-25T23:46:05.893Z,76.88
2018-09-25T23:48:38.518Z,78.15
2018-09-25T23:51:10.837Z,77.95
2018-09-25T23:53:44.605Z,77.58
2018-09-25T23:57:18.932Z,77.80
2018-09-25T23:59:51.561Z,77.02
